sensor_id;sensor_type;location;lat;lon;timestamp;P1;durP1;ratioP1;P2;durP2;ratioP2
84897;SDS011;75162;42.120;21.734;2023-12-28T00:00:39;65.97;;;36.10;;
84897;SDS011;75162;42.120;21.734;2023-12-28T00:03:05;65.07;;;35.15;;
84897;SDS011;75162;42.120;21.734;2023-12-28T00:05:31;71.53;;;36.85;;
84897;SDS011;75162;42.120;21.734;2023-12-28T00:07:57;64.15;;;35.58;;
84897;SDS011;75162;42.120;21.734;2023-12-28T00:10:24;66.32;;;35.83;;
84897;SDS011;75162;42.120;21.734;2023-12-28T00:12:50;67.63;;;36.20;;
84897;SDS011;75162;42.120;21.734;2023-12-28T00:15:16;70.53;;;36.60;;
84897;SDS011;75162;42.120;21.734;2023-12-28T00:17:42;68.28;;;39.05;;
84897;SDS011;75162;42.120;21.734;2023-12-28T00:20:08;75.40;;;41.28;;
84897;SDS011;75162;42.120;21.734;2023-12-28T00:22:35;85.45;;;43.83;;
84897;SDS011;75162;42.120;21.734;2023-12-28T00:25:02;89.00;;;46.80;;
84897;SDS011;75162;42.120;21.734;2023-12-28T00:27:29;87.43;;;43.38;;
84897;SDS011;75162;42.120;21.734;2023-12-28T00:29:55;101.38;;;49.22;;
84897;SDS011;75162;42.120;21.734;2023-12-28T00:32:21;98.90;;;49.97;;
84897;SDS011;75162;42.120;21.734;2023-12-28T00:34:47;91.13;;;43.97;;
84897;SDS011;75162;42.120;21.734;2023-12-28T00:37:13;75.88;;;40.60;;
84897;SDS011;75162;42.120;21.734;2023-12-28T00:39:39;58.28;;;31.85;;
84897;SDS011;75162;42.120;21.734;2023-12-28T00:42:06;53.92;;;29.80;;
84897;SDS011;75162;42.120;21.734;2023-12-28T00:44:32;51.25;;;28.35;;
84897;SDS011;75162;42.120;21.734;2023-12-28T00:46:58;73.22;;;36.70;;
84897;SDS011;75162;42.120;21.734;2023-12-28T00:49:24;65.05;;;36.05;;
84897;SDS011;75162;42.120;21.734;2023-12-28T00:51:50;76.63;;;39.78;;
84897;SDS011;75162;42.120;21.734;2023-12-28T00:54:16;91.05;;;42.90;;
84897;SDS011;75162;42.120;21.734;2023-12-28T00:56:42;95.35;;;50.20;;
84897;SDS011;75162;42.120;21.734;2023-12-28T00:59:08;67.95;;;35.50;;
84897;SDS011;75162;42.120;21.734;2023-12-28T01:01:34;62.30;;;33.35;;
84897;SDS011;75162;42.120;21.734;2023-12-28T01:04:00;55.08;;;31.10;;
84897;SDS011;75162;42.120;21.734;2023-12-28T01:06:26;57.47;;;30.08;;
84897;SDS011;75162;42.120;21.734;2023-12-28T01:08:54;64.75;;;33.05;;
84897;SDS011;75162;42.120;21.734;2023-12-28T01:11:20;76.57;;;37.38;;
84897;SDS011;75162;42.120;21.734;2023-12-28T01:13:46;68.38;;;34.30;;
84897;SDS011;75162;42.120;21.734;2023-12-28T01:16:12;69.97;;;35.53;;
84897;SDS011;75162;42.120;21.734;2023-12-28T01:18:39;61.80;;;33.63;;
84897;SDS011;75162;42.120;21.734;2023-12-28T01:21:05;60.95;;;31.95;;
84897;SDS011;75162;42.120;21.734;2023-12-28T01:23:32;61.65;;;34.55;;
84897;SDS011;75162;42.120;21.734;2023-12-28T01:25:59;61.45;;;34.10;;
84897;SDS011;75162;42.120;21.734;2023-12-28T01:28:25;69.75;;;35.25;;
84897;SDS011;75162;42.120;21.734;2023-12-28T01:30:51;56.90;;;31.38;;
84897;SDS011;75162;42.120;21.734;2023-12-28T01:33:17;63.10;;;34.67;;
84897;SDS011;75162;42.120;21.734;2023-12-28T01:35:43;57.33;;;31.25;;
84897;SDS011;75162;42.120;21.734;2023-12-28T01:38:09;62.35;;;29.98;;
84897;SDS011;75162;42.120;21.734;2023-12-28T01:40:35;47.03;;;26.48;;
84897;SDS011;75162;42.120;21.734;2023-12-28T01:43:01;51.25;;;29.45;;
84897;SDS011;75162;42.120;21.734;2023-12-28T01:45:27;51.97;;;29.30;;
84897;SDS011;75162;42.120;21.734;2023-12-28T01:47:54;54.28;;;30.23;;
84897;SDS011;75162;42.120;21.734;2023-12-28T01:50:21;54.53;;;32.65;;
84897;SDS011;75162;42.120;21.734;2023-12-28T01:52:48;61.60;;;31.70;;
84897;SDS011;75162;42.120;21.734;2023-12-28T01:55:15;58.67;;;31.40;;
84897;SDS011;75162;42.120;21.734;2023-12-28T01:57:42;55.25;;;30.63;;
84897;SDS011;75162;42.120;21.734;2023-12-28T02:00:09;60.33;;;31.98;;
84897;SDS011;75162;42.120;21.734;2023-12-28T02:02:35;56.92;;;32.75;;
84897;SDS011;75162;42.120;21.734;2023-12-28T02:05:01;62.53;;;32.47;;
84897;SDS011;75162;42.120;21.734;2023-12-28T02:07:27;56.10;;;30.27;;
84897;SDS011;75162;42.120;21.734;2023-12-28T02:09:55;56.05;;;32.63;;
84897;SDS011;75162;42.120;21.734;2023-12-28T02:12:21;58.08;;;32.70;;
84897;SDS011;75162;42.120;21.734;2023-12-28T02:14:47;56.05;;;28.88;;
84897;SDS011;75162;42.120;21.734;2023-12-28T02:17:16;58.90;;;30.05;;
84897;SDS011;75162;42.120;21.734;2023-12-28T02:19:52;52.08;;;28.45;;
84897;SDS011;75162;42.120;21.734;2023-12-28T02:22:19;48.60;;;28.13;;
84897;SDS011;75162;42.120;21.734;2023-12-28T02:24:54;48.65;;;26.40;;
84897;SDS011;75162;42.120;21.734;2023-12-28T02:27:20;49.28;;;28.50;;
84897;SDS011;75162;42.120;21.734;2023-12-28T02:29:46;47.92;;;26.80;;
84897;SDS011;75162;42.120;21.734;2023-12-28T02:32:12;57.53;;;28.00;;
84897;SDS011;75162;42.120;21.734;2023-12-28T02:34:39;48.30;;;27.85;;
84897;SDS011;75162;42.120;21.734;2023-12-28T02:37:08;50.08;;;27.40;;
84897;SDS011;75162;42.120;21.734;2023-12-28T02:39:34;47.25;;;25.77;;
84897;SDS011;75162;42.120;21.734;2023-12-28T02:42:01;40.08;;;22.83;;
84897;SDS011;75162;42.120;21.734;2023-12-28T02:44:28;41.30;;;22.38;;
84897;SDS011;75162;42.120;21.734;2023-12-28T02:46:54;43.25;;;23.67;;
84897;SDS011;75162;42.120;21.734;2023-12-28T02:49:20;43.70;;;23.70;;
84897;SDS011;75162;42.120;21.734;2023-12-28T02:51:46;47.45;;;25.02;;
84897;SDS011;75162;42.120;21.734;2023-12-28T02:54:12;43.72;;;24.20;;
84897;SDS011;75162;42.120;21.734;2023-12-28T02:56:39;47.33;;;24.08;;
84897;SDS011;75162;42.120;21.734;2023-12-28T02:59:06;43.45;;;24.52;;
84897;SDS011;75162;42.120;21.734;2023-12-28T03:01:32;43.85;;;26.10;;
84897;SDS011;75162;42.120;21.734;2023-12-28T03:03:58;44.00;;;24.23;;
84897;SDS011;75162;42.120;21.734;2023-12-28T03:06:24;40.20;;;22.30;;
84897;SDS011;75162;42.120;21.734;2023-12-28T03:08:50;59.33;;;29.52;;
84897;SDS011;75162;42.120;21.734;2023-12-28T03:11:16;39.00;;;20.30;;
84897;SDS011;75162;42.120;21.734;2023-12-28T03:13:42;44.70;;;24.67;;
84897;SDS011;75162;42.120;21.734;2023-12-28T03:16:09;43.72;;;24.27;;
84897;SDS011;75162;42.120;21.734;2023-12-28T03:18:35;35.13;;;20.40;;
84897;SDS011;75162;42.120;21.734;2023-12-28T03:21:01;34.35;;;19.27;;
84897;SDS011;75162;42.120;21.734;2023-12-28T03:23:27;36.30;;;20.95;;
84897;SDS011;75162;42.120;21.734;2023-12-28T03:25:53;38.70;;;20.65;;
84897;SDS011;75162;42.120;21.734;2023-12-28T03:28:19;35.22;;;19.40;;
84897;SDS011;75162;42.120;21.734;2023-12-28T03:30:46;36.38;;;20.00;;
84897;SDS011;75162;42.120;21.734;2023-12-28T03:33:12;35.22;;;19.30;;
84897;SDS011;75162;42.120;21.734;2023-12-28T03:35:38;37.38;;;19.83;;
84897;SDS011;75162;42.120;21.734;2023-12-28T03:38:05;34.95;;;18.95;;
84897;SDS011;75162;42.120;21.734;2023-12-28T03:40:31;34.10;;;20.35;;
84897;SDS011;75162;42.120;21.734;2023-12-28T03:42:57;38.85;;;20.85;;
84897;SDS011;75162;42.120;21.734;2023-12-28T03:45:23;37.72;;;19.65;;
84897;SDS011;75162;42.120;21.734;2023-12-28T03:47:49;31.63;;;18.52;;
84897;SDS011;75162;42.120;21.734;2023-12-28T03:50:16;32.90;;;19.33;;
84897;SDS011;75162;42.120;21.734;2023-12-28T03:52:42;36.38;;;18.58;;
84897;SDS011;75162;42.120;21.734;2023-12-28T03:55:08;35.72;;;19.25;;
84897;SDS011;75162;42.120;21.734;2023-12-28T03:57:34;31.85;;;18.67;;
84897;SDS011;75162;42.120;21.734;2023-12-28T04:00:00;33.80;;;17.58;;
84897;SDS011;75162;42.120;21.734;2023-12-28T04:02:26;29.65;;;18.30;;
84897;SDS011;75162;42.120;21.734;2023-12-28T04:04:56;34.40;;;18.25;;
84897;SDS011;75162;42.120;21.734;2023-12-28T04:07:23;33.08;;;18.17;;
84897;SDS011;75162;42.120;21.734;2023-12-28T04:09:50;34.97;;;18.75;;
84897;SDS011;75162;42.120;21.734;2023-12-28T04:12:16;31.20;;;16.23;;
84897;SDS011;75162;42.120;21.734;2023-12-28T04:14:42;34.20;;;19.83;;
84897;SDS011;75162;42.120;21.734;2023-12-28T04:17:08;31.00;;;16.77;;
84897;SDS011;75162;42.120;21.734;2023-12-28T04:19:34;38.17;;;19.38;;
84897;SDS011;75162;42.120;21.734;2023-12-28T04:22:00;30.75;;;17.60;;
84897;SDS011;75162;42.120;21.734;2023-12-28T04:24:26;34.78;;;17.88;;
84897;SDS011;75162;42.120;21.734;2023-12-28T04:26:52;37.90;;;19.08;;
84897;SDS011;75162;42.120;21.734;2023-12-28T04:29:18;28.92;;;17.20;;
84897;SDS011;75162;42.120;21.734;2023-12-28T04:31:46;29.42;;;17.25;;
84897;SDS011;75162;42.120;21.734;2023-12-28T04:34:12;34.83;;;17.48;;
84897;SDS011;75162;42.120;21.734;2023-12-28T04:36:41;33.63;;;17.73;;
84897;SDS011;75162;42.120;21.734;2023-12-28T04:39:08;31.05;;;17.02;;
84897;SDS011;75162;42.120;21.734;2023-12-28T04:41:34;27.73;;;15.90;;
84897;SDS011;75162;42.120;21.734;2023-12-28T04:44:00;32.70;;;18.33;;
84897;SDS011;75162;42.120;21.734;2023-12-28T04:46:26;36.58;;;18.13;;
84897;SDS011;75162;42.120;21.734;2023-12-28T04:48:52;34.40;;;18.23;;
84897;SDS011;75162;42.120;21.734;2023-12-28T04:51:18;33.42;;;17.75;;
84897;SDS011;75162;42.120;21.734;2023-12-28T04:53:44;32.25;;;18.40;;
84897;SDS011;75162;42.120;21.734;2023-12-28T04:56:10;34.88;;;17.08;;
84897;SDS011;75162;42.120;21.734;2023-12-28T04:58:36;34.00;;;17.73;;
84897;SDS011;75162;42.120;21.734;2023-12-28T05:01:02;32.47;;;18.17;;
84897;SDS011;75162;42.120;21.734;2023-12-28T05:03:29;33.30;;;16.88;;
84897;SDS011;75162;42.120;21.734;2023-12-28T05:05:55;30.15;;;17.25;;
84897;SDS011;75162;42.120;21.734;2023-12-28T05:08:21;32.67;;;16.83;;
84897;SDS011;75162;42.120;21.734;2023-12-28T05:10:47;32.50;;;18.50;;
84897;SDS011;75162;42.120;21.734;2023-12-28T05:13:13;33.70;;;18.65;;
84897;SDS011;75162;42.120;21.734;2023-12-28T05:15:39;37.60;;;18.67;;
84897;SDS011;75162;42.120;21.734;2023-12-28T05:18:05;36.90;;;19.23;;
84897;SDS011;75162;42.120;21.734;2023-12-28T05:20:33;44.13;;;20.23;;
84897;SDS011;75162;42.120;21.734;2023-12-28T05:22:59;37.58;;;19.23;;
84897;SDS011;75162;42.120;21.734;2023-12-28T05:25:25;34.53;;;17.70;;
84897;SDS011;75162;42.120;21.734;2023-12-28T05:27:51;34.80;;;18.65;;
84897;SDS011;75162;42.120;21.734;2023-12-28T05:30:18;39.63;;;21.08;;
84897;SDS011;75162;42.120;21.734;2023-12-28T05:32:44;42.72;;;21.35;;
84897;SDS011;75162;42.120;21.734;2023-12-28T05:35:10;41.55;;;21.15;;
84897;SDS011;75162;42.120;21.734;2023-12-28T05:37:36;41.42;;;19.58;;
84897;SDS011;75162;42.120;21.734;2023-12-28T05:40:02;39.97;;;20.10;;
84897;SDS011;75162;42.120;21.734;2023-12-28T05:42:28;36.63;;;18.60;;
84897;SDS011;75162;42.120;21.734;2023-12-28T05:44:54;51.05;;;22.27;;
84897;SDS011;75162;42.120;21.734;2023-12-28T05:47:20;63.47;;;26.40;;
84897;SDS011;75162;42.120;21.734;2023-12-28T05:49:46;49.88;;;23.10;;
84897;SDS011;75162;42.120;21.734;2023-12-28T05:52:12;52.13;;;24.60;;
84897;SDS011;75162;42.120;21.734;2023-12-28T05:54:44;57.45;;;28.63;;
84897;SDS011;75162;42.120;21.734;2023-12-28T05:57:10;72.68;;;30.85;;
84897;SDS011;75162;42.120;21.734;2023-12-28T05:59:39;72.90;;;34.25;;
84897;SDS011;75162;42.120;21.734;2023-12-28T06:02:05;69.30;;;30.30;;
84897;SDS011;75162;42.120;21.734;2023-12-28T06:04:31;74.50;;;29.73;;
84897;SDS011;75162;42.120;21.734;2023-12-28T06:06:59;55.08;;;26.17;;
84897;SDS011;75162;42.120;21.734;2023-12-28T06:09:25;58.80;;;27.13;;
84897;SDS011;75162;42.120;21.734;2023-12-28T06:11:52;62.58;;;26.33;;
84897;SDS011;75162;42.120;21.734;2023-12-28T06:14:18;60.70;;;26.40;;
84897;SDS011;75162;42.120;21.734;2023-12-28T06:16:44;57.78;;;29.23;;
84897;SDS011;75162;42.120;21.734;2023-12-28T06:19:11;82.35;;;37.25;;
84897;SDS011;75162;42.120;21.734;2023-12-28T06:21:37;77.32;;;36.78;;
84897;SDS011;75162;42.120;21.734;2023-12-28T06:24:04;114.45;;;53.42;;
84897;SDS011;75162;42.120;21.734;2023-12-28T06:26:30;129.32;;;64.47;;
84897;SDS011;75162;42.120;21.734;2023-12-28T06:28:56;93.10;;;48.80;;
84897;SDS011;75162;42.120;21.734;2023-12-28T06:31:22;108.57;;;50.92;;
84897;SDS011;75162;42.120;21.734;2023-12-28T06:33:48;85.47;;;40.72;;
84897;SDS011;75162;42.120;21.734;2023-12-28T06:36:14;102.93;;;47.03;;
84897;SDS011;75162;42.120;21.734;2023-12-28T06:38:44;68.57;;;31.95;;
84897;SDS011;75162;42.120;21.734;2023-12-28T06:41:13;114.22;;;47.53;;
84897;SDS011;75162;42.120;21.734;2023-12-28T06:43:39;100.15;;;43.15;;
84897;SDS011;75162;42.120;21.734;2023-12-28T06:46:05;82.30;;;39.13;;
84897;SDS011;75162;42.120;21.734;2023-12-28T06:48:31;90.00;;;43.05;;
84897;SDS011;75162;42.120;21.734;2023-12-28T06:50:58;54.85;;;24.65;;
84897;SDS011;75162;42.120;21.734;2023-12-28T06:53:24;82.97;;;36.22;;
84897;SDS011;75162;42.120;21.734;2023-12-28T06:55:51;75.90;;;30.38;;
84897;SDS011;75162;42.120;21.734;2023-12-28T06:58:17;70.68;;;30.45;;
84897;SDS011;75162;42.120;21.734;2023-12-28T07:00:43;62.55;;;25.75;;
84897;SDS011;75162;42.120;21.734;2023-12-28T07:03:09;54.72;;;23.90;;
84897;SDS011;75162;42.120;21.734;2023-12-28T07:05:35;52.78;;;21.73;;
84897;SDS011;75162;42.120;21.734;2023-12-28T07:08:02;39.50;;;20.70;;
84897;SDS011;75162;42.120;21.734;2023-12-28T07:10:28;64.63;;;35.50;;
84897;SDS011;75162;42.120;21.734;2023-12-28T07:12:54;58.70;;;26.75;;
84897;SDS011;75162;42.120;21.734;2023-12-28T07:15:20;74.30;;;32.42;;
84897;SDS011;75162;42.120;21.734;2023-12-28T07:17:46;81.28;;;33.70;;
84897;SDS011;75162;42.120;21.734;2023-12-28T07:20:12;53.35;;;26.60;;
84897;SDS011;75162;42.120;21.734;2023-12-28T07:22:38;48.42;;;24.30;;
84897;SDS011;75162;42.120;21.734;2023-12-28T07:25:05;45.92;;;26.17;;
84897;SDS011;75162;42.120;21.734;2023-12-28T07:27:32;34.28;;;23.23;;
84897;SDS011;75162;42.120;21.734;2023-12-28T07:29:58;33.00;;;21.35;;
84897;SDS011;75162;42.120;21.734;2023-12-28T07:32:24;34.47;;;21.80;;
84897;SDS011;75162;42.120;21.734;2023-12-28T07:34:53;32.78;;;20.70;;
84897;SDS011;75162;42.120;21.734;2023-12-28T07:37:20;35.88;;;22.15;;
84897;SDS011;75162;42.120;21.734;2023-12-28T07:39:46;34.80;;;23.73;;
84897;SDS011;75162;42.120;21.734;2023-12-28T07:42:12;39.85;;;26.55;;
84897;SDS011;75162;42.120;21.734;2023-12-28T07:44:38;50.78;;;31.05;;
84897;SDS011;75162;42.120;21.734;2023-12-28T07:47:05;52.58;;;31.75;;
84897;SDS011;75162;42.120;21.734;2023-12-28T07:49:31;54.22;;;31.63;;
84897;SDS011;75162;42.120;21.734;2023-12-28T07:51:57;56.80;;;35.58;;
84897;SDS011;75162;42.120;21.734;2023-12-28T07:54:23;68.30;;;40.08;;
84897;SDS011;75162;42.120;21.734;2023-12-28T07:56:49;61.53;;;37.10;;
84897;SDS011;75162;42.120;21.734;2023-12-28T07:59:15;67.82;;;41.28;;
84897;SDS011;75162;42.120;21.734;2023-12-28T08:01:42;60.15;;;36.55;;
84897;SDS011;75162;42.120;21.734;2023-12-28T08:04:08;69.22;;;39.45;;
84897;SDS011;75162;42.120;21.734;2023-12-28T08:06:34;68.38;;;42.35;;
84897;SDS011;75162;42.120;21.734;2023-12-28T08:09:01;63.97;;;38.88;;
84897;SDS011;75162;42.120;21.734;2023-12-28T08:11:27;64.82;;;39.72;;
84897;SDS011;75162;42.120;21.734;2023-12-28T08:13:53;64.70;;;39.15;;
84897;SDS011;75162;42.120;21.734;2023-12-28T08:16:20;69.43;;;43.30;;
84897;SDS011;75162;42.120;21.734;2023-12-28T08:18:46;87.45;;;51.90;;
84897;SDS011;75162;42.120;21.734;2023-12-28T08:21:12;82.20;;;49.75;;
84897;SDS011;75162;42.120;21.734;2023-12-28T08:23:38;89.90;;;48.85;;
84897;SDS011;75162;42.120;21.734;2023-12-28T08:26:04;98.78;;;54.50;;
84897;SDS011;75162;42.120;21.734;2023-12-28T08:28:32;46.17;;;28.60;;
84897;SDS011;75162;42.120;21.734;2023-12-28T08:30:58;31.15;;;20.30;;
84897;SDS011;75162;42.120;21.734;2023-12-28T08:33:24;27.73;;;17.35;;
84897;SDS011;75162;42.120;21.734;2023-12-28T08:35:50;31.80;;;19.75;;
84897;SDS011;75162;42.120;21.734;2023-12-28T08:38:16;29.50;;;18.15;;
84897;SDS011;75162;42.120;21.734;2023-12-28T08:40:43;43.03;;;21.70;;
84897;SDS011;75162;42.120;21.734;2023-12-28T08:43:12;35.88;;;20.85;;
84897;SDS011;75162;42.120;21.734;2023-12-28T08:45:38;34.67;;;20.58;;
84897;SDS011;75162;42.120;21.734;2023-12-28T08:48:04;32.00;;;21.10;;
84897;SDS011;75162;42.120;21.734;2023-12-28T08:50:30;29.92;;;19.42;;
84897;SDS011;75162;42.120;21.734;2023-12-28T08:52:59;29.33;;;18.45;;
84897;SDS011;75162;42.120;21.734;2023-12-28T08:55:25;25.98;;;19.00;;
84897;SDS011;75162;42.120;21.734;2023-12-28T08:57:51;28.80;;;18.10;;
84897;SDS011;75162;42.120;21.734;2023-12-28T09:00:17;26.33;;;16.02;;
84897;SDS011;75162;42.120;21.734;2023-12-28T09:02:44;22.00;;;15.45;;
84897;SDS011;75162;42.120;21.734;2023-12-28T09:05:10;18.67;;;11.85;;
84897;SDS011;75162;42.120;21.734;2023-12-28T09:07:36;18.30;;;12.13;;
84897;SDS011;75162;42.120;21.734;2023-12-28T09:10:08;17.48;;;11.70;;
84897;SDS011;75162;42.120;21.734;2023-12-28T09:12:35;19.35;;;12.18;;
84897;SDS011;75162;42.120;21.734;2023-12-28T09:15:01;24.15;;;13.10;;
84897;SDS011;75162;42.120;21.734;2023-12-28T09:17:27;17.85;;;12.13;;
84897;SDS011;75162;42.120;21.734;2023-12-28T09:19:53;16.77;;;11.73;;
84897;SDS011;75162;42.120;21.734;2023-12-28T09:22:19;17.70;;;11.43;;
84897;SDS011;75162;42.120;21.734;2023-12-28T09:24:45;17.88;;;11.32;;
84897;SDS011;75162;42.120;21.734;2023-12-28T09:27:11;17.70;;;10.27;;
84897;SDS011;75162;42.120;21.734;2023-12-28T09:29:37;24.02;;;12.88;;
84897;SDS011;75162;42.120;21.734;2023-12-28T09:32:04;15.98;;;10.77;;
84897;SDS011;75162;42.120;21.734;2023-12-28T09:34:30;17.33;;;11.73;;
84897;SDS011;75162;42.120;21.734;2023-12-28T09:36:56;14.77;;;11.07;;
84897;SDS011;75162;42.120;21.734;2023-12-28T09:39:22;16.10;;;10.75;;
84897;SDS011;75162;42.120;21.734;2023-12-28T09:41:49;19.00;;;11.88;;
84897;SDS011;75162;42.120;21.734;2023-12-28T09:44:19;20.65;;;13.98;;
84897;SDS011;75162;42.120;21.734;2023-12-28T09:46:45;24.25;;;13.23;;
84897;SDS011;75162;42.120;21.734;2023-12-28T09:49:11;19.95;;;12.20;;
84897;SDS011;75162;42.120;21.734;2023-12-28T09:51:37;21.73;;;12.90;;
84897;SDS011;75162;42.120;21.734;2023-12-28T09:54:03;20.60;;;13.00;;
84897;SDS011;75162;42.120;21.734;2023-12-28T09:56:30;19.80;;;12.00;;
84897;SDS011;75162;42.120;21.734;2023-12-28T09:58:57;23.27;;;13.57;;
84897;SDS011;75162;42.120;21.734;2023-12-28T10:01:24;24.42;;;12.98;;
84897;SDS011;75162;42.120;21.734;2023-12-28T10:03:50;25.27;;;13.63;;
84897;SDS011;75162;42.120;21.734;2023-12-28T10:06:17;22.92;;;14.50;;
84897;SDS011;75162;42.120;21.734;2023-12-28T10:08:46;27.65;;;15.77;;
84897;SDS011;75162;42.120;21.734;2023-12-28T10:11:14;26.17;;;15.35;;
84897;SDS011;75162;42.120;21.734;2023-12-28T10:13:41;26.85;;;14.38;;
84897;SDS011;75162;42.120;21.734;2023-12-28T10:16:09;20.48;;;13.55;;
84897;SDS011;75162;42.120;21.734;2023-12-28T10:18:36;29.17;;;16.17;;
84897;SDS011;75162;42.120;21.734;2023-12-28T10:21:02;26.48;;;16.38;;
84897;SDS011;75162;42.120;21.734;2023-12-28T10:23:28;26.65;;;16.15;;
84897;SDS011;75162;42.120;21.734;2023-12-28T10:25:58;25.55;;;15.50;;
84897;SDS011;75162;42.120;21.734;2023-12-28T10:28:25;34.90;;;17.45;;
84897;SDS011;75162;42.120;21.734;2023-12-28T10:30:54;27.02;;;16.17;;
84897;SDS011;75162;42.120;21.734;2023-12-28T10:33:24;32.10;;;17.83;;
84897;SDS011;75162;42.120;21.734;2023-12-28T10:35:50;33.38;;;17.60;;
84897;SDS011;75162;42.120;21.734;2023-12-28T10:38:17;31.45;;;19.67;;
84897;SDS011;75162;42.120;21.734;2023-12-28T10:40:46;28.70;;;18.50;;
84897;SDS011;75162;42.120;21.734;2023-12-28T10:43:16;32.53;;;19.52;;
84897;SDS011;75162;42.120;21.734;2023-12-28T10:45:45;36.42;;;20.90;;
84897;SDS011;75162;42.120;21.734;2023-12-28T10:48:12;30.98;;;17.85;;
84897;SDS011;75162;42.120;21.734;2023-12-28T10:53:11;33.00;;;19.42;;
84897;SDS011;75162;42.120;21.734;2023-12-28T10:55:40;31.55;;;19.23;;
84897;SDS011;75162;42.120;21.734;2023-12-28T10:58:10;35.55;;;22.27;;
84897;SDS011;75162;42.120;21.734;2023-12-28T11:00:38;60.25;;;33.45;;
84897;SDS011;75162;42.120;21.734;2023-12-28T11:03:05;44.42;;;26.25;;
84897;SDS011;75162;42.120;21.734;2023-12-28T11:05:34;66.68;;;36.42;;
84897;SDS011;75162;42.120;21.734;2023-12-28T11:08:01;48.15;;;29.75;;
84897;SDS011;75162;42.120;21.734;2023-12-28T11:10:28;47.33;;;25.27;;
84897;SDS011;75162;42.120;21.734;2023-12-28T11:12:56;41.25;;;25.83;;
84897;SDS011;75162;42.120;21.734;2023-12-28T11:15:25;44.42;;;25.52;;
84897;SDS011;75162;42.120;21.734;2023-12-28T11:17:52;45.42;;;27.00;;
84897;SDS011;75162;42.120;21.734;2023-12-28T11:20:18;43.72;;;26.55;;
84897;SDS011;75162;42.120;21.734;2023-12-28T11:22:45;46.08;;;28.25;;
84897;SDS011;75162;42.120;21.734;2023-12-28T11:25:17;51.30;;;28.60;;
84897;SDS011;75162;42.120;21.734;2023-12-28T11:27:45;48.25;;;27.58;;
84897;SDS011;75162;42.120;21.734;2023-12-28T11:30:11;46.28;;;27.80;;
84897;SDS011;75162;42.120;21.734;2023-12-28T11:32:41;60.88;;;30.58;;
84897;SDS011;75162;42.120;21.734;2023-12-28T11:35:08;56.03;;;31.92;;
84897;SDS011;75162;42.120;21.734;2023-12-28T11:37:38;48.70;;;27.38;;
84897;SDS011;75162;42.120;21.734;2023-12-28T11:40:10;53.20;;;28.60;;
84897;SDS011;75162;42.120;21.734;2023-12-28T11:42:36;57.60;;;34.13;;
84897;SDS011;75162;42.120;21.734;2023-12-28T11:45:13;71.20;;;40.42;;
84897;SDS011;75162;42.120;21.734;2023-12-28T11:47:41;65.55;;;36.30;;
84897;SDS011;75162;42.120;21.734;2023-12-28T11:50:08;66.03;;;34.72;;
84897;SDS011;75162;42.120;21.734;2023-12-28T11:52:34;72.10;;;40.05;;
84897;SDS011;75162;42.120;21.734;2023-12-28T11:55:00;64.60;;;38.00;;
84897;SDS011;75162;42.120;21.734;2023-12-28T11:57:26;57.15;;;32.63;;
84897;SDS011;75162;42.120;21.734;2023-12-28T11:59:54;59.83;;;35.30;;
84897;SDS011;75162;42.120;21.734;2023-12-28T12:02:20;73.55;;;39.20;;
84897;SDS011;75162;42.120;21.734;2023-12-28T12:04:47;64.72;;;39.45;;
84897;SDS011;75162;42.120;21.734;2023-12-28T12:07:13;55.10;;;34.55;;
84897;SDS011;75162;42.120;21.734;2023-12-28T12:09:39;56.38;;;32.97;;
84897;SDS011;75162;42.120;21.734;2023-12-28T12:12:06;55.80;;;34.80;;
84897;SDS011;75162;42.120;21.734;2023-12-28T12:14:32;64.43;;;34.15;;
84897;SDS011;75162;42.120;21.734;2023-12-28T12:17:00;62.10;;;35.25;;
84897;SDS011;75162;42.120;21.734;2023-12-28T12:19:26;64.22;;;36.58;;
84897;SDS011;75162;42.120;21.734;2023-12-28T12:21:53;59.65;;;34.80;;
84897;SDS011;75162;42.120;21.734;2023-12-28T12:24:19;57.22;;;31.13;;
84897;SDS011;75162;42.120;21.734;2023-12-28T12:26:46;58.95;;;32.58;;
84897;SDS011;75162;42.120;21.734;2023-12-28T12:29:12;56.47;;;31.98;;
84897;SDS011;75162;42.120;21.734;2023-12-28T12:31:46;51.15;;;31.08;;
84897;SDS011;75162;42.120;21.734;2023-12-28T12:34:14;54.53;;;32.35;;
84897;SDS011;75162;42.120;21.734;2023-12-28T12:36:41;58.30;;;32.30;;
84897;SDS011;75162;42.120;21.734;2023-12-28T12:39:09;54.00;;;31.70;;
84897;SDS011;75162;42.120;21.734;2023-12-28T12:41:36;50.13;;;29.90;;
84897;SDS011;75162;42.120;21.734;2023-12-28T12:44:05;53.35;;;29.73;;
84897;SDS011;75162;42.120;21.734;2023-12-28T12:46:31;45.30;;;29.35;;
84897;SDS011;75162;42.120;21.734;2023-12-28T12:48:58;43.67;;;26.88;;
84897;SDS011;75162;42.120;21.734;2023-12-28T12:51:27;46.30;;;27.15;;
84897;SDS011;75162;42.120;21.734;2023-12-28T12:53:59;43.30;;;26.60;;
84897;SDS011;75162;42.120;21.734;2023-12-28T12:56:26;47.20;;;26.55;;
84897;SDS011;75162;42.120;21.734;2023-12-28T12:58:53;44.92;;;26.80;;
84897;SDS011;75162;42.120;21.734;2023-12-28T13:01:19;44.97;;;27.60;;
84897;SDS011;75162;42.120;21.734;2023-12-28T13:03:45;59.78;;;33.42;;
84897;SDS011;75162;42.120;21.734;2023-12-28T13:06:12;52.22;;;30.17;;
84897;SDS011;75162;42.120;21.734;2023-12-28T13:08:38;51.55;;;28.67;;
84897;SDS011;75162;42.120;21.734;2023-12-28T13:11:04;55.33;;;29.75;;
84897;SDS011;75162;42.120;21.734;2023-12-28T13:13:34;55.03;;;32.10;;
84897;SDS011;75162;42.120;21.734;2023-12-28T13:16:00;55.20;;;32.08;;
84897;SDS011;75162;42.120;21.734;2023-12-28T13:18:27;50.65;;;31.33;;
84897;SDS011;75162;42.120;21.734;2023-12-28T13:20:53;45.85;;;29.40;;
84897;SDS011;75162;42.120;21.734;2023-12-28T13:23:19;56.13;;;34.97;;
84897;SDS011;75162;42.120;21.734;2023-12-28T13:25:45;53.00;;;31.63;;
84897;SDS011;75162;42.120;21.734;2023-12-28T13:28:12;63.53;;;34.92;;
84897;SDS011;75162;42.120;21.734;2023-12-28T13:30:39;56.75;;;34.70;;
84897;SDS011;75162;42.120;21.734;2023-12-28T13:33:05;51.80;;;32.13;;
84897;SDS011;75162;42.120;21.734;2023-12-28T13:35:31;57.22;;;35.80;;
84897;SDS011;75162;42.120;21.734;2023-12-28T13:38:00;50.08;;;30.13;;
84897;SDS011;75162;42.120;21.734;2023-12-28T13:40:27;50.78;;;30.45;;
84897;SDS011;75162;42.120;21.734;2023-12-28T13:42:53;52.38;;;31.52;;
84897;SDS011;75162;42.120;21.734;2023-12-28T13:45:25;64.75;;;34.40;;
84897;SDS011;75162;42.120;21.734;2023-12-28T13:47:51;122.65;;;68.05;;
84897;SDS011;75162;42.120;21.734;2023-12-28T13:50:18;50.72;;;27.00;;
84897;SDS011;75162;42.120;21.734;2023-12-28T13:52:45;48.30;;;27.58;;
84897;SDS011;75162;42.120;21.734;2023-12-28T13:55:11;49.92;;;27.20;;
84897;SDS011;75162;42.120;21.734;2023-12-28T13:57:37;61.75;;;32.80;;
84897;SDS011;75162;42.120;21.734;2023-12-28T14:00:03;59.33;;;31.02;;
84897;SDS011;75162;42.120;21.734;2023-12-28T14:02:30;64.70;;;35.95;;
84897;SDS011;75162;42.120;21.734;2023-12-28T14:04:56;62.75;;;35.47;;
84897;SDS011;75162;42.120;21.734;2023-12-28T14:07:23;67.45;;;36.97;;